sensor_id;sensor_type;location;lat;lon;timestamp;P1;durP1;ratioP1;P2;durP2;ratioP2
11386;SDS011;5748;53.102;8.456;2023-04-24T00:01:58;1.33;;;1.23;;
11386;SDS011;5748;53.102;8.456;2023-04-24T00:04:29;1.20;;;1.10;;
11386;SDS011;5748;53.102;8.456;2023-04-24T00:06:56;1.23;;;1.13;;
11386;SDS011;5748;53.102;8.456;2023-04-24T00:09:25;1.13;;;1.10;;
11386;SDS011;5748;53.102;8.456;2023-04-24T00:11:52;1.63;;;1.20;;
11386;SDS011;5748;53.102;8.456;2023-04-24T00:14:19;1.30;;;1.20;;
11386;SDS011;5748;53.102;8.456;2023-04-24T00:16:46;1.00;;;1.00;;
11386;SDS011;5748;53.102;8.456;2023-04-24T00:19:15;1.40;;;1.30;;
11386;SDS011;5748;53.102;8.456;2023-04-24T00:21:42;1.27;;;1.17;;
11386;SDS011;5748;53.102;8.456;2023-04-24T00:24:09;1.47;;;1.30;;
11386;SDS011;5748;53.102;8.456;2023-04-24T00:26:47;1.20;;;1.10;;
11386;SDS011;5748;53.102;8.456;2023-04-24T00:29:25;1.30;;;1.20;;
11386;SDS011;5748;53.102;8.456;2023-04-24T00:32:25;1.00;;;1.00;;
11386;SDS011;5748;53.102;8.456;2023-04-24T00:34:56;1.17;;;1.07;;
11386;SDS011;5748;53.102;8.456;2023-04-24T00:37:34;1.10;;;1.00;;
11386;SDS011;5748;53.102;8.456;2023-04-24T00:40:01;0.90;;;0.90;;
11386;SDS011;5748;53.102;8.456;2023-04-24T00:42:29;0.70;;;0.70;;
11386;SDS011;5748;53.102;8.456;2023-04-24T00:44:56;0.70;;;0.70;;
11386;SDS011;5748;53.102;8.456;2023-04-24T00:47:25;0.60;;;0.60;;
11386;SDS011;5748;53.102;8.456;2023-04-24T00:50:01;0.60;;;0.60;;
11386;SDS011;5748;53.102;8.456;2023-04-24T00:52:31;0.60;;;0.60;;
11386;SDS011;5748;53.102;8.456;2023-04-24T00:54:58;0.60;;;0.50;;
11386;SDS011;5748;53.102;8.456;2023-04-24T00:57:25;0.50;;;0.50;;
11386;SDS011;5748;53.102;8.456;2023-04-24T00:59:55;0.40;;;0.40;;
11386;SDS011;5748;53.102;8.456;2023-04-24T01:02:22;0.50;;;0.50;;
11386;SDS011;5748;53.102;8.456;2023-04-24T01:08:16;0.70;;;0.70;;
11386;SDS011;5748;53.102;8.456;2023-04-24T01:10:43;0.67;;;0.67;;
11386;SDS011;5748;53.102;8.456;2023-04-24T01:13:13;0.60;;;0.60;;
11386;SDS011;5748;53.102;8.456;2023-04-24T01:15:40;0.83;;;0.80;;
11386;SDS011;5748;53.102;8.456;2023-04-24T01:18:08;0.90;;;0.90;;
11386;SDS011;5748;53.102;8.456;2023-04-24T01:20:36;0.70;;;0.70;;
11386;SDS011;5748;53.102;8.456;2023-04-24T01:23:06;0.83;;;0.83;;
11386;SDS011;5748;53.102;8.456;2023-04-24T01:25:37;0.80;;;0.80;;
11386;SDS011;5748;53.102;8.456;2023-04-24T01:31:01;0.70;;;0.70;;
11386;SDS011;5748;53.102;8.456;2023-04-24T01:33:30;1.10;;;1.00;;
11386;SDS011;5748;53.102;8.456;2023-04-24T01:35:58;1.10;;;1.10;;
11386;SDS011;5748;53.102;8.456;2023-04-24T01:38:37;1.00;;;1.00;;
11386;SDS011;5748;53.102;8.456;2023-04-24T01:41:04;1.10;;;1.10;;
11386;SDS011;5748;53.102;8.456;2023-04-24T01:43:42;0.90;;;0.90;;
11386;SDS011;5748;53.102;8.456;2023-04-24T01:46:09;1.00;;;1.00;;
11386;SDS011;5748;53.102;8.456;2023-04-24T01:48:36;1.40;;;1.30;;
11386;SDS011;5748;53.102;8.456;2023-04-24T01:51:10;0.90;;;0.90;;
11386;SDS011;5748;53.102;8.456;2023-04-24T01:53:38;1.30;;;1.20;;
11386;SDS011;5748;53.102;8.456;2023-04-24T01:56:05;1.10;;;1.10;;
11386;SDS011;5748;53.102;8.456;2023-04-24T01:58:32;1.60;;;1.50;;
11386;SDS011;5748;53.102;8.456;2023-04-24T02:00:59;1.30;;;1.20;;
11386;SDS011;5748;53.102;8.456;2023-04-24T02:03:26;1.17;;;1.17;;
11386;SDS011;5748;53.102;8.456;2023-04-24T02:06:01;1.10;;;1.10;;
11386;SDS011;5748;53.102;8.456;2023-04-24T02:08:28;1.50;;;1.40;;
11386;SDS011;5748;53.102;8.456;2023-04-24T02:14:00;1.53;;;1.43;;
11386;SDS011;5748;53.102;8.456;2023-04-24T02:16:27;1.47;;;1.37;;
11386;SDS011;5748;53.102;8.456;2023-04-24T02:18:57;1.57;;;1.47;;
11386;SDS011;5748;53.102;8.456;2023-04-24T02:21:24;1.30;;;1.20;;
11386;SDS011;5748;53.102;8.456;2023-04-24T02:23:52;1.77;;;1.67;;
11386;SDS011;5748;53.102;8.456;2023-04-24T02:26:19;1.60;;;1.50;;
11386;SDS011;5748;53.102;8.456;2023-04-24T02:28:47;1.20;;;1.20;;
11386;SDS011;5748;53.102;8.456;2023-04-24T02:31:14;1.60;;;1.50;;
11386;SDS011;5748;53.102;8.456;2023-04-24T02:33:47;1.50;;;1.40;;
11386;SDS011;5748;53.102;8.456;2023-04-24T02:36:14;1.27;;;1.17;;
11386;SDS011;5748;53.102;8.456;2023-04-24T02:38:41;1.20;;;1.10;;
11386;SDS011;5748;53.102;8.456;2023-04-24T02:41:08;1.20;;;1.10;;
11386;SDS011;5748;53.102;8.456;2023-04-24T02:43:37;1.50;;;1.40;;
11386;SDS011;5748;53.102;8.456;2023-04-24T02:46:05;1.27;;;1.17;;
11386;SDS011;5748;53.102;8.456;2023-04-24T02:51:18;1.23;;;1.20;;
11386;SDS011;5748;53.102;8.456;2023-04-24T02:57:00;1.90;;;1.80;;
11386;SDS011;5748;53.102;8.456;2023-04-24T02:59:27;1.60;;;1.50;;
11386;SDS011;5748;53.102;8.456;2023-04-24T03:01:56;2.67;;;2.47;;
11386;SDS011;5748;53.102;8.456;2023-04-24T03:07:09;2.20;;;2.10;;
11386;SDS011;5748;53.102;8.456;2023-04-24T03:09:36;6.37;;;2.60;;
11386;SDS011;5748;53.102;8.456;2023-04-24T03:12:03;2.50;;;2.30;;
11386;SDS011;5748;53.102;8.456;2023-04-24T03:14:49;3.00;;;2.80;;
11386;SDS011;5748;53.102;8.456;2023-04-24T03:17:17;2.50;;;2.30;;
11386;SDS011;5748;53.102;8.456;2023-04-24T03:19:44;2.23;;;2.13;;
11386;SDS011;5748;53.102;8.456;2023-04-24T03:22:11;2.33;;;2.20;;
11386;SDS011;5748;53.102;8.456;2023-04-24T03:24:38;2.30;;;2.10;;
11386;SDS011;5748;53.102;8.456;2023-04-24T03:27:06;2.50;;;2.30;;
11386;SDS011;5748;53.102;8.456;2023-04-24T03:29:33;2.40;;;2.20;;
11386;SDS011;5748;53.102;8.456;2023-04-24T03:32:11;2.50;;;2.30;;
11386;SDS011;5748;53.102;8.456;2023-04-24T03:34:39;2.10;;;2.00;;
11386;SDS011;5748;53.102;8.456;2023-04-24T03:37:06;2.00;;;1.90;;
11386;SDS011;5748;53.102;8.456;2023-04-24T03:39:33;2.57;;;2.37;;
11386;SDS011;5748;53.102;8.456;2023-04-24T03:42:00;1.80;;;1.70;;
11386;SDS011;5748;53.102;8.456;2023-04-24T03:44:28;2.40;;;2.20;;
11386;SDS011;5748;53.102;8.456;2023-04-24T03:46:55;1.90;;;1.80;;
11386;SDS011;5748;53.102;8.456;2023-04-24T03:49:22;3.77;;;2.80;;
11386;SDS011;5748;53.102;8.456;2023-04-24T03:51:50;2.00;;;1.80;;
11386;SDS011;5748;53.102;8.456;2023-04-24T03:54:17;1.90;;;1.80;;
11386;SDS011;5748;53.102;8.456;2023-04-24T03:56:44;1.93;;;1.83;;
11386;SDS011;5748;53.102;8.456;2023-04-24T04:02:20;2.60;;;2.40;;
11386;SDS011;5748;53.102;8.456;2023-04-24T04:04:54;2.60;;;2.40;;
11386;SDS011;5748;53.102;8.456;2023-04-24T04:07:22;2.43;;;2.23;;
11386;SDS011;5748;53.102;8.456;2023-04-24T04:09:49;3.07;;;2.83;;
11386;SDS011;5748;53.102;8.456;2023-04-24T04:12:16;2.87;;;2.67;;
11386;SDS011;5748;53.102;8.456;2023-04-24T04:14:43;3.03;;;2.60;;
11386;SDS011;5748;53.102;8.456;2023-04-24T04:17:10;2.70;;;2.50;;
11386;SDS011;5748;53.102;8.456;2023-04-24T04:19:37;2.50;;;2.30;;
11386;SDS011;5748;53.102;8.456;2023-04-24T04:22:04;2.80;;;2.60;;
11386;SDS011;5748;53.102;8.456;2023-04-24T04:24:34;3.50;;;3.20;;
11386;SDS011;5748;53.102;8.456;2023-04-24T04:27:02;3.20;;;2.90;;
11386;SDS011;5748;53.102;8.456;2023-04-24T04:29:30;4.20;;;3.20;;
11386;SDS011;5748;53.102;8.456;2023-04-24T04:31:57;2.20;;;2.00;;
11386;SDS011;5748;53.102;8.456;2023-04-24T04:34:25;3.10;;;2.90;;
11386;SDS011;5748;53.102;8.456;2023-04-24T04:36:52;2.60;;;2.40;;
11386;SDS011;5748;53.102;8.456;2023-04-24T04:39:19;2.73;;;2.53;;
11386;SDS011;5748;53.102;8.456;2023-04-24T04:41:49;2.87;;;2.67;;
11386;SDS011;5748;53.102;8.456;2023-04-24T04:44:16;2.80;;;2.60;;
11386;SDS011;5748;53.102;8.456;2023-04-24T04:46:43;3.17;;;2.97;;
11386;SDS011;5748;53.102;8.456;2023-04-24T04:49:11;2.73;;;2.53;;
11386;SDS011;5748;53.102;8.456;2023-04-24T04:51:38;2.70;;;2.50;;
11386;SDS011;5748;53.102;8.456;2023-04-24T04:57:08;3.47;;;2.77;;
11386;SDS011;5748;53.102;8.456;2023-04-24T04:59:35;2.50;;;2.30;;
11386;SDS011;5748;53.102;8.456;2023-04-24T05:02:09;2.23;;;2.03;;
11386;SDS011;5748;53.102;8.456;2023-04-24T05:04:36;2.47;;;2.20;;
11386;SDS011;5748;53.102;8.456;2023-04-24T05:07:03;2.60;;;2.40;;
11386;SDS011;5748;53.102;8.456;2023-04-24T05:09:30;2.60;;;1.97;;
11386;SDS011;5748;53.102;8.456;2023-04-24T05:11:57;2.23;;;2.03;;
11386;SDS011;5748;53.102;8.456;2023-04-24T05:14:25;3.03;;;2.73;;
11386;SDS011;5748;53.102;8.456;2023-04-24T05:16:52;3.60;;;3.30;;
11386;SDS011;5748;53.102;8.456;2023-04-24T05:19:19;2.90;;;2.70;;
11386;SDS011;5748;53.102;8.456;2023-04-24T05:21:46;2.50;;;2.30;;
11386;SDS011;5748;53.102;8.456;2023-04-24T05:24:13;2.93;;;2.73;;
11386;SDS011;5748;53.102;8.456;2023-04-24T05:26:46;3.03;;;2.73;;
11386;SDS011;5748;53.102;8.456;2023-04-24T05:29:13;3.43;;;3.10;;
11386;SDS011;5748;53.102;8.456;2023-04-24T05:31:42;3.20;;;2.90;;
11386;SDS011;5748;53.102;8.456;2023-04-24T05:34:09;3.63;;;3.00;;
11386;SDS011;5748;53.102;8.456;2023-04-24T05:36:35;2.80;;;2.60;;
11386;SDS011;5748;53.102;8.456;2023-04-24T05:39:02;3.30;;;3.00;;
11386;SDS011;5748;53.102;8.456;2023-04-24T05:41:30;2.90;;;2.60;;
11386;SDS011;5748;53.102;8.456;2023-04-24T05:43:57;2.60;;;2.40;;
11386;SDS011;5748;53.102;8.456;2023-04-24T05:46:24;3.07;;;2.80;;
11386;SDS011;5748;53.102;8.456;2023-04-24T05:48:52;2.70;;;2.50;;
11386;SDS011;5748;53.102;8.456;2023-04-24T05:51:35;3.17;;;2.70;;
11386;SDS011;5748;53.102;8.456;2023-04-24T05:54:04;2.60;;;2.40;;
11386;SDS011;5748;53.102;8.456;2023-04-24T05:59:12;2.37;;;2.17;;
11386;SDS011;5748;53.102;8.456;2023-04-24T06:01:39;2.73;;;2.20;;
11386;SDS011;5748;53.102;8.456;2023-04-24T06:04:08;4.03;;;3.60;;
11386;SDS011;5748;53.102;8.456;2023-04-24T06:06:35;3.00;;;2.70;;
11386;SDS011;5748;53.102;8.456;2023-04-24T06:09:03;3.20;;;2.90;;
11386;SDS011;5748;53.102;8.456;2023-04-24T06:11:30;2.63;;;2.43;;
11386;SDS011;5748;53.102;8.456;2023-04-24T06:13:57;3.30;;;3.00;;
11386;SDS011;5748;53.102;8.456;2023-04-24T06:16:24;3.73;;;3.43;;
11386;SDS011;5748;53.102;8.456;2023-04-24T06:18:59;3.87;;;3.57;;
11386;SDS011;5748;53.102;8.456;2023-04-24T06:21:28;3.30;;;3.00;;
11386;SDS011;5748;53.102;8.456;2023-04-24T06:23:57;3.50;;;3.20;;
11386;SDS011;5748;53.102;8.456;2023-04-24T06:26:31;3.00;;;2.80;;
11386;SDS011;5748;53.102;8.456;2023-04-24T06:28:58;3.00;;;2.70;;
11386;SDS011;5748;53.102;8.456;2023-04-24T06:31:25;3.30;;;3.00;;
11386;SDS011;5748;53.102;8.456;2023-04-24T06:33:52;4.00;;;3.70;;
11386;SDS011;5748;53.102;8.456;2023-04-24T06:36:21;3.40;;;3.10;;
11386;SDS011;5748;53.102;8.456;2023-04-24T06:38:49;4.10;;;3.70;;
11386;SDS011;5748;53.102;8.456;2023-04-24T06:43:52;3.77;;;3.47;;
11386;SDS011;5748;53.102;8.456;2023-04-24T06:46:19;4.00;;;3.60;;
11386;SDS011;5748;53.102;8.456;2023-04-24T06:48:50;3.10;;;2.80;;
11386;SDS011;5748;53.102;8.456;2023-04-24T06:51:28;3.60;;;3.30;;
11386;SDS011;5748;53.102;8.456;2023-04-24T06:54:00;4.40;;;4.00;;
11386;SDS011;5748;53.102;8.456;2023-04-24T06:56:40;4.77;;;4.30;;
11386;SDS011;5748;53.102;8.456;2023-04-24T07:01:56;4.03;;;3.63;;
11386;SDS011;5748;53.102;8.456;2023-04-24T07:04:37;4.73;;;4.23;;
11386;SDS011;5748;53.102;8.456;2023-04-24T07:07:17;4.70;;;4.30;;
11386;SDS011;5748;53.102;8.456;2023-04-24T07:13:06;3.97;;;3.67;;
11386;SDS011;5748;53.102;8.456;2023-04-24T07:15:45;3.80;;;3.50;;
11386;SDS011;5748;53.102;8.456;2023-04-24T07:18:14;3.70;;;3.40;;
11386;SDS011;5748;53.102;8.456;2023-04-24T07:20:41;4.43;;;4.03;;
11386;SDS011;5748;53.102;8.456;2023-04-24T07:23:08;4.90;;;4.40;;
11386;SDS011;5748;53.102;8.456;2023-04-24T07:25:34;5.37;;;3.80;;
11386;SDS011;5748;53.102;8.456;2023-04-24T07:28:03;5.20;;;4.70;;
11386;SDS011;5748;53.102;8.456;2023-04-24T07:30:45;4.90;;;4.47;;
11386;SDS011;5748;53.102;8.456;2023-04-24T07:33:12;4.53;;;4.13;;
11386;SDS011;5748;53.102;8.456;2023-04-24T07:35:39;4.30;;;4.00;;
11386;SDS011;5748;53.102;8.456;2023-04-24T07:38:07;3.77;;;3.47;;
11386;SDS011;5748;53.102;8.456;2023-04-24T07:40:34;4.47;;;4.07;;
11386;SDS011;5748;53.102;8.456;2023-04-24T07:43:03;3.50;;;3.20;;
11386;SDS011;5748;53.102;8.456;2023-04-24T07:45:29;4.00;;;3.70;;
11386;SDS011;5748;53.102;8.456;2023-04-24T07:48:02;5.07;;;4.57;;
11386;SDS011;5748;53.102;8.456;2023-04-24T07:50:40;3.83;;;3.53;;
11386;SDS011;5748;53.102;8.456;2023-04-24T07:53:07;5.33;;;3.87;;
11386;SDS011;5748;53.102;8.456;2023-04-24T07:55:34;3.10;;;2.90;;
11386;SDS011;5748;53.102;8.456;2023-04-24T07:58:02;4.50;;;4.07;;
11386;SDS011;5748;53.102;8.456;2023-04-24T08:00:29;3.83;;;3.53;;
11386;SDS011;5748;53.102;8.456;2023-04-24T08:02:56;3.10;;;2.80;;
11386;SDS011;5748;53.102;8.456;2023-04-24T08:05:23;3.03;;;2.73;;
11386;SDS011;5748;53.102;8.456;2023-04-24T08:07:52;3.40;;;3.10;;
11386;SDS011;5748;53.102;8.456;2023-04-24T08:10:19;3.50;;;3.20;;
11386;SDS011;5748;53.102;8.456;2023-04-24T08:12:47;3.20;;;2.90;;
11386;SDS011;5748;53.102;8.456;2023-04-24T08:15:16;3.00;;;2.60;;
11386;SDS011;5748;53.102;8.456;2023-04-24T08:17:43;2.90;;;2.70;;
11386;SDS011;5748;53.102;8.456;2023-04-24T08:20:10;3.70;;;3.40;;
11386;SDS011;5748;53.102;8.456;2023-04-24T08:22:39;3.23;;;3.00;;
11386;SDS011;5748;53.102;8.456;2023-04-24T08:25:06;4.30;;;3.90;;
11386;SDS011;5748;53.102;8.456;2023-04-24T08:27:34;3.97;;;3.67;;
11386;SDS011;5748;53.102;8.456;2023-04-24T08:30:03;3.53;;;3.23;;
11386;SDS011;5748;53.102;8.456;2023-04-24T08:32:33;3.93;;;3.53;;
11386;SDS011;5748;53.102;8.456;2023-04-24T08:35:00;3.03;;;2.73;;
11386;SDS011;5748;53.102;8.456;2023-04-24T08:40:23;3.67;;;3.37;;
11386;SDS011;5748;53.102;8.456;2023-04-24T08:42:55;3.90;;;3.50;;
11386;SDS011;5748;53.102;8.456;2023-04-24T08:45:22;3.00;;;2.77;;
11386;SDS011;5748;53.102;8.456;2023-04-24T08:47:52;3.53;;;2.77;;
11386;SDS011;5748;53.102;8.456;2023-04-24T08:50:26;3.80;;;3.50;;
11386;SDS011;5748;53.102;8.456;2023-04-24T08:52:55;3.10;;;2.90;;
11386;SDS011;5748;53.102;8.456;2023-04-24T08:55:22;3.23;;;2.93;;
11386;SDS011;5748;53.102;8.456;2023-04-24T08:57:51;3.37;;;3.07;;
11386;SDS011;5748;53.102;8.456;2023-04-24T09:00:20;3.80;;;3.50;;
11386;SDS011;5748;53.102;8.456;2023-04-24T09:02:48;3.30;;;3.10;;
11386;SDS011;5748;53.102;8.456;2023-04-24T09:05:30;3.40;;;3.07;;
11386;SDS011;5748;53.102;8.456;2023-04-24T09:08:14;4.30;;;3.90;;
11386;SDS011;5748;53.102;8.456;2023-04-24T09:14:04;4.27;;;3.87;;
11386;SDS011;5748;53.102;8.456;2023-04-24T09:19:24;4.13;;;3.40;;
11386;SDS011;5748;53.102;8.456;2023-04-24T09:24:40;2.93;;;2.70;;
11386;SDS011;5748;53.102;8.456;2023-04-24T09:27:25;2.70;;;2.50;;
11386;SDS011;5748;53.102;8.456;2023-04-24T09:29:55;3.13;;;2.93;;
11386;SDS011;5748;53.102;8.456;2023-04-24T09:32:31;2.87;;;2.60;;
11386;SDS011;5748;53.102;8.456;2023-04-24T09:35:15;3.00;;;2.80;;
11386;SDS011;5748;53.102;8.456;2023-04-24T09:40:30;3.03;;;2.83;;
11386;SDS011;5748;53.102;8.456;2023-04-24T09:43:00;3.00;;;2.70;;
11386;SDS011;5748;53.102;8.456;2023-04-24T09:45:28;2.67;;;2.47;;
11386;SDS011;5748;53.102;8.456;2023-04-24T09:48:07;2.97;;;2.70;;
11386;SDS011;5748;53.102;8.456;2023-04-24T09:50:36;2.67;;;2.47;;
11386;SDS011;5748;53.102;8.456;2023-04-24T09:53:11;2.43;;;2.23;;
11386;SDS011;5748;53.102;8.456;2023-04-24T09:55:38;2.67;;;2.47;;
11386;SDS011;5748;53.102;8.456;2023-04-24T09:58:08;2.70;;;2.50;;
11386;SDS011;5748;53.102;8.456;2023-04-24T10:00:35;3.10;;;2.90;;
11386;SDS011;5748;53.102;8.456;2023-04-24T10:03:03;4.27;;;3.87;;
11386;SDS011;5748;53.102;8.456;2023-04-24T10:05:31;3.50;;;3.20;;
11386;SDS011;5748;53.102;8.456;2023-04-24T10:08:00;4.43;;;4.03;;
11386;SDS011;5748;53.102;8.456;2023-04-24T10:10:32;4.80;;;4.40;;
11386;SDS011;5748;53.102;8.456;2023-04-24T10:13:18;3.47;;;3.17;;
11386;SDS011;5748;53.102;8.456;2023-04-24T10:15:45;3.20;;;3.00;;
11386;SDS011;5748;53.102;8.456;2023-04-24T10:18:14;2.70;;;2.50;;
11386;SDS011;5748;53.102;8.456;2023-04-24T10:20:42;2.77;;;2.57;;
11386;SDS011;5748;53.102;8.456;2023-04-24T10:26:07;2.00;;;1.90;;
11386;SDS011;5748;53.102;8.456;2023-04-24T10:28:40;2.43;;;2.23;;
11386;SDS011;5748;53.102;8.456;2023-04-24T10:31:08;2.93;;;2.73;;
11386;SDS011;5748;53.102;8.456;2023-04-24T10:33:40;2.80;;;2.60;;
11386;SDS011;5748;53.102;8.456;2023-04-24T10:36:20;2.57;;;2.37;;
11386;SDS011;5748;53.102;8.456;2023-04-24T10:39:06;2.30;;;2.10;;
11386;SDS011;5748;53.102;8.456;2023-04-24T10:41:40;2.43;;;2.23;;
11386;SDS011;5748;53.102;8.456;2023-04-24T10:44:07;2.40;;;2.20;;
11386;SDS011;5748;53.102;8.456;2023-04-24T10:46:35;3.10;;;2.80;;
11386;SDS011;5748;53.102;8.456;2023-04-24T10:49:13;2.60;;;2.40;;
11386;SDS011;5748;53.102;8.456;2023-04-24T10:51:47;2.57;;;2.37;;
11386;SDS011;5748;53.102;8.456;2023-04-24T10:54:36;2.27;;;2.07;;
11386;SDS011;5748;53.102;8.456;2023-04-24T11:00:19;2.30;;;2.10;;
11386;SDS011;5748;53.102;8.456;2023-04-24T11:02:48;2.90;;;2.70;;
11386;SDS011;5748;53.102;8.456;2023-04-24T11:05:17;2.40;;;2.20;;
11386;SDS011;5748;53.102;8.456;2023-04-24T11:11:00;2.30;;;2.10;;
11386;SDS011;5748;53.102;8.456;2023-04-24T11:16:35;3.00;;;2.80;;
11386;SDS011;5748;53.102;8.456;2023-04-24T11:19:09;2.60;;;2.40;;
11386;SDS011;5748;53.102;8.456;2023-04-24T11:21:46;2.77;;;2.57;;
11386;SDS011;5748;53.102;8.456;2023-04-24T11:24:26;2.20;;;2.00;;
11386;SDS011;5748;53.102;8.456;2023-04-24T11:26:57;1.53;;;1.43;;
11386;SDS011;5748;53.102;8.456;2023-04-24T11:29:45;1.77;;;1.67;;
11386;SDS011;5748;53.102;8.456;2023-04-24T11:32:28;1.40;;;1.30;;
11386;SDS011;5748;53.102;8.456;2023-04-24T11:35:07;1.20;;;1.10;;
11386;SDS011;5748;53.102;8.456;2023-04-24T11:37:48;1.30;;;1.20;;
11386;SDS011;5748;53.102;8.456;2023-04-24T11:40:17;1.27;;;1.17;;
11386;SDS011;5748;53.102;8.456;2023-04-24T11:42:59;0.90;;;0.90;;
11386;SDS011;5748;53.102;8.456;2023-04-24T11:45:29;1.20;;;1.10;;
11386;SDS011;5748;53.102;8.456;2023-04-24T11:48:05;1.63;;;1.00;;
11386;SDS011;5748;53.102;8.456;2023-04-24T11:50:37;0.90;;;0.90;;
11386;SDS011;5748;53.102;8.456;2023-04-24T11:53:04;0.90;;;0.90;;
11386;SDS011;5748;53.102;8.456;2023-04-24T11:55:31;0.90;;;0.90;;
11386;SDS011;5748;53.102;8.456;2023-04-24T11:57:59;1.00;;;1.00;;
11386;SDS011;5748;53.102;8.456;2023-04-24T12:03:31;0.80;;;0.80;;
11386;SDS011;5748;53.102;8.456;2023-04-24T12:06:05;0.90;;;0.90;;
11386;SDS011;5748;53.102;8.456;2023-04-24T12:08:40;1.00;;;0.90;;
11386;SDS011;5748;53.102;8.456;2023-04-24T12:11:08;0.80;;;0.80;;
11386;SDS011;5748;53.102;8.456;2023-04-24T12:13:52;0.90;;;0.90;;
11386;SDS011;5748;53.102;8.456;2023-04-24T12:16:27;1.63;;;1.00;;
11386;SDS011;5748;53.102;8.456;2023-04-24T12:18:56;0.90;;;0.90;;
11386;SDS011;5748;53.102;8.456;2023-04-24T12:24:30;1.27;;;0.90;;
11386;SDS011;5748;53.102;8.456;2023-04-24T12:26:58;0.90;;;0.90;;
11386;SDS011;5748;53.102;8.456;2023-04-24T12:29:26;0.90;;;0.90;;
11386;SDS011;5748;53.102;8.456;2023-04-24T12:31:54;2.17;;;1.53;;
11386;SDS011;5748;53.102;8.456;2023-04-24T12:34:25;2.00;;;1.80;;
11386;SDS011;5748;53.102;8.456;2023-04-24T12:36:52;3.10;;;2.47;;
11386;SDS011;5748;53.102;8.456;2023-04-24T12:39:19;4.20;;;3.70;;
11386;SDS011;5748;53.102;8.456;2023-04-24T12:41:50;5.40;;;3.60;;
11386;SDS011;5748;53.102;8.456;2023-04-24T12:44:28;3.90;;;3.50;;
11386;SDS011;5748;53.102;8.456;2023-04-24T12:46:58;4.70;;;3.80;;
11386;SDS011;5748;53.102;8.456;2023-04-24T12:49:29;3.67;;;3.33;;
11386;SDS011;5748;53.102;8.456;2023-04-24T12:51:57;4.17;;;3.77;;
11386;SDS011;5748;53.102;8.456;2023-04-24T12:54:25;3.87;;;3.57;;
11386;SDS011;5748;53.102;8.456;2023-04-24T12:56:52;4.10;;;3.70;;
11386;SDS011;5748;53.102;8.456;2023-04-24T12:59:19;3.50;;;3.20;;
11386;SDS011;5748;53.102;8.456;2023-04-24T13:01:46;3.67;;;3.30;;
11386;SDS011;5748;53.102;8.456;2023-04-24T13:04:14;3.30;;;3.00;;
11386;SDS011;5748;53.102;8.456;2023-04-24T13:06:42;3.47;;;2.73;;
11386;SDS011;5748;53.102;8.456;2023-04-24T13:09:09;3.17;;;2.87;;
11386;SDS011;5748;53.102;8.456;2023-04-24T13:11:36;2.87;;;2.40;;
11386;SDS011;5748;53.102;8.456;2023-04-24T13:14:03;2.93;;;2.47;;
11386;SDS011;5748;53.102;8.456;2023-04-24T13:16:30;2.43;;;2.20;;
11386;SDS011;5748;53.102;8.456;2023-04-24T13:18:58;2.30;;;2.10;;
11386;SDS011;5748;53.102;8.456;2023-04-24T13:21:26;2.30;;;2.10;;
11386;SDS011;5748;53.102;8.456;2023-04-24T13:23:54;2.10;;;1.90;;
11386;SDS011;5748;53.102;8.456;2023-04-24T13:26:27;2.60;;;2.40;;
11386;SDS011;5748;53.102;8.456;2023-04-24T13:31:40;2.50;;;2.30;;
11386;SDS011;5748;53.102;8.456;2023-04-24T13:34:07;3.63;;;2.90;;
11386;SDS011;5748;53.102;8.456;2023-04-24T13:36:35;2.87;;;2.57;;
11386;SDS011;5748;53.102;8.456;2023-04-24T13:39:02;2.60;;;2.40;;
11386;SDS011;5748;53.102;8.456;2023-04-24T13:41:33;2.63;;;2.20;;
11386;SDS011;5748;53.102;8.456;2023-04-24T13:44:01;3.50;;;2.43;;
11386;SDS011;5748;53.102;8.456;2023-04-24T13:46:28;2.57;;;2.37;;
11386;SDS011;5748;53.102;8.456;2023-04-24T13:48:55;3.50;;;2.47;;
11386;SDS011;5748;53.102;8.456;2023-04-24T13:51:22;2.30;;;2.07;;
11386;SDS011;5748;53.102;8.456;2023-04-24T13:53:53;2.33;;;2.00;;
11386;SDS011;5748;53.102;8.456;2023-04-24T13:56:22;1.80;;;1.70;;
11386;SDS011;5748;53.102;8.456;2023-04-24T13:58:49;1.93;;;1.73;;
11386;SDS011;5748;53.102;8.456;2023-04-24T14:01:16;2.10;;;1.90;;
11386;SDS011;5748;53.102;8.456;2023-04-24T14:03:43;1.60;;;1.50;;
11386;SDS011;5748;53.102;8.456;2023-04-24T14:06:10;1.87;;;1.67;;
11386;SDS011;5748;53.102;8.456;2023-04-24T14:08:37;2.37;;;1.77;;
11386;SDS011;5748;53.102;8.456;2023-04-24T14:11:05;2.00;;;1.80;;
11386;SDS011;5748;53.102;8.456;2023-04-24T14:13:35;2.77;;;1.87;;
11386;SDS011;5748;53.102;8.456;2023-04-24T14:16:04;2.00;;;1.80;;
11386;SDS011;5748;53.102;8.456;2023-04-24T14:18:37;2.20;;;1.53;;
11386;SDS011;5748;53.102;8.456;2023-04-24T14:21:06;1.90;;;1.70;;
11386;SDS011;5748;53.102;8.456;2023-04-24T14:23:33;1.50;;;1.40;;
11386;SDS011;5748;53.102;8.456;2023-04-24T14:26:00;1.40;;;1.30;;
11386;SDS011;5748;53.102;8.456;2023-04-24T14:28:28;1.83;;;1.60;;
11386;SDS011;5748;53.102;8.456;2023-04-24T14:30:55;2.17;;;1.70;;
11386;SDS011;5748;53.102;8.456;2023-04-24T14:33:22;1.93;;;1.70;;
11386;SDS011;5748;53.102;8.456;2023-04-24T14:35:49;2.93;;;2.03;;
11386;SDS011;5748;53.102;8.456;2023-04-24T14:38:16;2.83;;;2.10;;
11386;SDS011;5748;53.102;8.456;2023-04-24T14:40:43;2.17;;;1.73;;
11386;SDS011;5748;53.102;8.456;2023-04-24T14:43:10;2.00;;;1.70;;
11386;SDS011;5748;53.102;8.456;2023-04-24T14:45:39;2.63;;;1.80;;
11386;SDS011;5748;53.102;8.456;2023-04-24T14:48:06;2.23;;;1.70;;
11386;SDS011;5748;53.102;8.456;2023-04-24T14:50:34;1.93;;;1.60;;
11386;SDS011;5748;53.102;8.456;2023-04-24T14:53:01;2.07;;;1.60;;
11386;SDS011;5748;53.102;8.456;2023-04-24T14:55:29;1.50;;;1.40;;
11386;SDS011;5748;53.102;8.456;2023-04-24T14:57:56;1.57;;;1.30;;
11386;SDS011;5748;53.102;8.456;2023-04-24T15:00:23;1.43;;;1.30;;
11386;SDS011;5748;53.102;8.456;2023-04-24T15:02:52;1.93;;;1.43;;
11386;SDS011;5748;53.102;8.456;2023-04-24T15:05:20;2.40;;;1.40;;
11386;SDS011;5748;53.102;8.456;2023-04-24T15:07:47;2.33;;;1.70;;
11386;SDS011;5748;53.102;8.456;2023-04-24T15:10:15;2.30;;;1.43;;
11386;SDS011;5748;53.102;8.456;2023-04-24T15:12:42;2.20;;;1.40;;
11386;SDS011;5748;53.102;8.456;2023-04-24T15:15:09;1.80;;;1.53;;
11386;SDS011;5748;53.102;8.456;2023-04-24T15:17:36;2.20;;;1.60;;
11386;SDS011;5748;53.102;8.456;2023-04-24T15:20:05;1.30;;;1.20;;
11386;SDS011;5748;53.102;8.456;2023-04-24T15:22:34;1.40;;;1.30;;
11386;SDS011;5748;53.102;8.456;2023-04-24T15:25:01;1.30;;;1.20;;
11386;SDS011;5748;53.102;8.456;2023-04-24T15:27:38;1.53;;;1.30;;
11386;SDS011;5748;53.102;8.456;2023-04-24T15:30:07;2.30;;;1.50;;
11386;SDS011;5748;53.102;8.456;2023-04-24T15:32:35;1.67;;;1.23;;
11386;SDS011;5748;53.102;8.456;2023-04-24T15:35:04;1.93;;;1.60;;
11386;SDS011;5748;53.102;8.456;2023-04-24T15:37:39;1.67;;;1.30;;
11386;SDS011;5748;53.102;8.456;2023-04-24T15:42:42;1.57;;;1.40;;
11386;SDS011;5748;53.102;8.456;2023-04-24T15:45:12;2.90;;;1.70;;
11386;SDS011;5748;53.102;8.456;2023-04-24T15:47:39;1.50;;;1.40;;
11386;SDS011;5748;53.102;8.456;2023-04-24T15:50:09;1.90;;;1.70;;
11386;SDS011;5748;53.102;8.456;2023-04-24T15:52:37;1.60;;;1.50;;
11386;SDS011;5748;53.102;8.456;2023-04-24T15:55:04;2.00;;;1.80;;
11386;SDS011;5748;53.102;8.456;2023-04-24T15:57:32;1.57;;;1.47;;
11386;SDS011;5748;53.102;8.456;2023-04-24T15:59:59;1.80;;;1.50;;
11386;SDS011;5748;53.102;8.456;2023-04-24T16:02:26;2.27;;;1.60;;
11386;SDS011;5748;53.102;8.456;2023-04-24T16:04:53;2.17;;;1.43;;
11386;SDS011;5748;53.102;8.456;2023-04-24T16:07:21;2.23;;;1.67;;
11386;SDS011;5748;53.102;8.456;2023-04-24T16:12:51;1.67;;;1.30;;
11386;SDS011;5748;53.102;8.456;2023-04-24T16:15:22;2.57;;;1.70;;
11386;SDS011;5748;53.102;8.456;2023-04-24T16:18:06;1.40;;;1.30;;
11386;SDS011;5748;53.102;8.456;2023-04-24T16:20:41;1.50;;;1.30;;
11386;SDS011;5748;53.102;8.456;2023-04-24T16:23:11;2.87;;;1.47;;
11386;SDS011;5748;53.102;8.456;2023-04-24T16:25:57;2.63;;;1.60;;
11386;SDS011;5748;53.102;8.456;2023-04-24T16:28:30;2.00;;;1.60;;
11386;SDS011;5748;53.102;8.456;2023-04-24T16:30:58;1.57;;;1.20;;
11386;SDS011;5748;53.102;8.456;2023-04-24T16:36:35;2.27;;;1.10;;